Time;durP1;ratioP1;P1;durP2;ratioP2;P2;SDS_P1;SDS_P2;PMS_P1;PMS_P2;Temp;Humidity;BMP_temperature;BMP_pressure;BME280_temperature;BME280_humidity;BME280_pressure;Samples;Min_cycle;Max_cycle;Signal;HPM_P1;HPM_P2
2021/03/18 00:01:05;;;;;;;5.37;4.13;;;2.60;90.00;;;;;;5075483;28;20223;-87
2021/03/18 00:03:34;;;;;;;6.40;4.03;;;2.60;90.00;;;;;;5067622;28;20732;-85
2021/03/18 00:06:01;;;;;;;6.07;4.07;;;2.50;89.30;;;;;;5067584;28;20281;-84
2021/03/18 00:08:28;;;;;;;5.17;3.90;;;2.50;89.80;;;;;;5073157;28;20235;-88
2021/03/18 00:10:55;;;;;;;6.47;4.33;;;2.50;89.90;;;;;;5075789;28;20207;-84
2021/03/18 00:13:23;;;;;;;6.17;4.67;;;2.50;89.50;;;;;;5066023;28;20225;-86
2021/03/18 00:15:50;;;;;;;6.33;4.50;;;2.50;89.70;;;;;;5069077;28;20217;-83
2021/03/18 00:18:18;;;;;;;7.00;4.90;;;2.50;89.30;;;;;;5075456;28;20221;-87
2021/03/18 00:20:49;;;;;;;6.70;4.60;;;2.40;89.70;;;;;;5072366;28;20572;-83
2021/03/18 00:23:16;;;;;;;9.30;4.60;;;2.30;89.70;;;;;;5073079;28;20216;-86
2021/03/18 00:25:42;;;;;;;8.60;4.87;;;2.30;89.10;;;;;;5072792;28;20573;-85
2021/03/18 00:28:09;;;;;;;7.77;4.50;;;2.10;89.00;;;;;;5077105;28;20284;-85
2021/03/18 00:30:35;;;;;;;7.50;4.97;;;2.00;90.00;;;;;;5067326;28;20216;-86
2021/03/18 00:33:01;;;;;;;6.50;5.00;;;2.00;90.30;;;;;;5068008;28;20225;-85
2021/03/18 00:35:29;;;;;;;7.83;5.03;;;2.00;90.50;;;;;;5071582;28;20209;-86
2021/03/18 00:37:58;;;;;;;7.40;4.70;;;2.00;90.40;;;;;;5066565;28;20270;-86
2021/03/18 00:40:26;;;;;;;7.00;4.67;;;2.10;90.50;;;;;;5064174;28;20202;-88
2021/03/18 00:42:56;;;;;;;6.77;4.97;;;2.20;90.50;;;;;;5071604;28;20221;-85
2021/03/18 00:45:25;;;;;;;5.73;4.90;;;2.20;90.20;;;;;;5073929;28;20658;-86
2021/03/18 00:47:51;;;;;;;9.23;5.10;;;2.30;90.10;;;;;;5068820;28;20247;-84
2021/03/18 00:50:22;;;;;;;7.00;4.53;;;2.20;89.70;;;;;;5075114;28;20242;-82
2021/03/18 00:52:49;;;;;;;5.73;4.40;;;2.30;90.20;;;;;;5073790;28;20672;-83
2021/03/18 00:55:16;;;;;;;7.07;4.60;;;2.30;89.30;;;;;;5069688;28;20283;-87
2021/03/18 00:57:43;;;;;;;8.17;5.23;;;2.30;89.70;;;;;;5075006;28;20240;-84
2021/03/18 01:00:15;;;;;;;7.43;5.33;;;2.20;89.70;;;;;;5071286;28;20205;-83
2021/03/18 01:02:41;;;;;;;6.37;5.07;;;2.20;90.40;;;;;;5076775;28;20237;-85
2021/03/18 01:05:11;;;;;;;9.03;4.57;;;2.30;90.00;;;;;;5076621;28;20204;-85
2021/03/18 01:07:39;;;;;;;8.50;5.03;;;2.20;88.80;;;;;;5072698;28;20225;-84
2021/03/18 01:10:08;;;;;;;8.60;4.90;;;2.10;89.10;;;;;;5070391;28;20200;-84
2021/03/18 01:12:36;;;;;;;7.57;5.30;;;2.00;90.10;;;;;;5078431;28;20232;-85
2021/03/18 01:15:04;;;;;;;7.83;4.90;;;1.90;90.30;;;;;;5065577;28;20750;-84
2021/03/18 01:17:31;;;;;;;7.93;5.20;;;1.90;90.60;;;;;;5074265;28;20694;-84
2021/03/18 01:19:58;;;;;;;6.73;4.97;;;1.90;90.80;;;;;;5073509;28;20213;-88
2021/03/18 01:22:24;;;;;;;7.10;5.70;;;1.90;90.70;;;;;;5062078;28;20203;-85
2021/03/18 01:24:54;;;;;;;9.60;6.10;;;1.80;90.70;;;;;;5068863;28;20211;-86
2021/03/18 01:27:21;;;;;;;8.17;5.43;;;1.80;91.20;;;;;;5076689;28;20230;-84
2021/03/18 01:29:48;;;;;;;9.07;5.93;;;1.70;91.20;;;;;;5082275;28;20196;-85
2021/03/18 01:32:14;;;;;;;7.87;6.10;;;1.70;91.60;;;;;;5071830;28;20605;-86
2021/03/18 01:34:41;;;;;;;7.33;5.47;;;1.70;91.90;;;;;;5075594;28;20200;-84
2021/03/18 01:37:07;;;;;;;8.27;5.40;;;1.70;92.10;;;;;;5065777;28;20199;-84
2021/03/18 01:39:37;;;;;;;6.87;5.77;;;1.70;92.00;;;;;;5072607;28;20746;-88
2021/03/18 01:42:07;;;;;;;7.50;6.07;;;1.70;92.00;;;;;;5060998;28;20290;-85
2021/03/18 01:44:34;;;;;;;10.70;5.73;;;1.70;92.00;;;;;;5067442;28;20236;-84
2021/03/18 01:47:01;;;;;;;9.93;6.67;;;1.70;91.70;;;;;;5073653;28;20243;-85
2021/03/18 01:49:27;;;;;;;9.90;6.20;;;1.70;91.70;;;;;;5062413;28;20576;-85
2021/03/18 01:51:54;;;;;;;8.60;6.20;;;1.80;91.70;;;;;;5071235;28;20529;-85
2021/03/18 01:54:21;;;;;;;9.30;6.43;;;1.80;91.30;;;;;;5062663;28;20241;-84
2021/03/18 01:56:48;;;;;;;8.90;5.97;;;1.90;91.70;;;;;;5073329;28;20295;-83
2021/03/18 01:59:14;;;;;;;9.57;5.73;;;2.00;91.10;;;;;;5061509;28;20247;-85
2021/03/18 02:01:41;;;;;;;9.23;6.20;;;1.90;90.40;;;;;;5080268;28;20236;-84
2021/03/18 02:04:08;;;;;;;8.50;6.10;;;1.80;90.80;;;;;;5073805;28;20583;-84
2021/03/18 02:06:34;;;;;;;12.33;6.63;;;1.80;90.60;;;;;;5070734;28;20534;-84
2021/03/18 02:09:01;;;;;;;12.03;6.37;;;1.80;90.40;;;;;;5068292;28;20232;-84
2021/03/18 02:11:27;;;;;;;11.93;7.00;;;1.70;90.50;;;;;;5067561;28;20561;-84
2021/03/18 02:13:54;;;;;;;11.83;7.03;;;1.70;91.00;;;;;;5073703;28;20745;-84
2021/03/18 02:16:20;;;;;;;9.93;6.63;;;1.70;90.90;;;;;;5069163;28;20670;-85
2021/03/18 02:18:52;;;;;;;10.47;6.20;;;1.80;90.70;;;;;;5072863;28;20710;-83
2021/03/18 02:21:50;;;;;;;11.80;6.93;;;1.80;90.40;;;;;;5084810;28;20251;-85
2021/03/18 02:24:37;;;;;;;10.50;6.40;;;1.70;90.60;;;;;;5070360;28;20230;-88
2021/03/18 02:27:38;;;;;;;13.03;6.90;;;1.70;90.50;;;;;;5065894;28;20725;-85
2021/03/18 02:30:47;;;;;;;10.33;7.13;;;1.60;90.30;;;;;;5068098;28;20575;-85
2021/03/18 02:33:58;;;;;;;10.43;6.80;;;1.60;90.60;;;;;;5062495;28;20324;-86
2021/03/18 02:36:30;;;;;;;12.73;7.03;;;1.70;90.50;;;;;;5070465;28;20241;-84
2021/03/18 02:38:58;;;;;;;11.73;7.07;;;1.70;90.20;;;;;;5072044;28;20599;-85
2021/03/18 02:41:29;;;;;;;13.30;7.70;;;1.60;90.20;;;;;;5069648;28;20203;-88
2021/03/18 02:44:02;;;;;;;12.17;7.93;;;1.60;90.10;;;;;;5067054;28;20237;-86
2021/03/18 02:46:29;;;;;;;11.27;7.60;;;1.60;90.00;;;;;;5074429;28;20617;-84
2021/03/18 02:49:02;;;;;;;13.97;7.83;;;1.50;90.30;;;;;;5068042;28;20226;-87
2021/03/18 02:51:31;;;;;;;14.70;8.40;;;1.50;90.10;;;;;;5072542;28;20203;-84
2021/03/18 02:54:02;;;;;;;14.63;8.50;;;1.70;90.10;;;;;;5064002;28;20227;-85
2021/03/18 02:56:29;;;;;;;13.10;7.90;;;1.70;90.20;;;;;;5066520;28;20476;-85
2021/03/18 02:58:57;;;;;;;11.17;7.63;;;1.80;88.00;;;;;;5061904;28;20228;-83
2021/03/18 03:01:25;;;;;;;14.17;8.13;;;1.70;89.10;;;;;;5074861;28;20250;-85
2021/03/18 03:03:53;;;;;;;13.20;8.13;;;1.70;89.00;;;;;;5067820;28;20779;-83
2021/03/18 03:06:21;;;;;;;13.83;8.07;;;1.70;90.00;;;;;;5068395;28;20205;-85
2021/03/18 03:08:49;;;;;;;12.57;8.20;;;1.80;89.90;;;;;;5074797;28;20226;-83
2021/03/18 03:11:20;;;;;;;13.90;8.10;;;1.80;89.40;;;;;;5065572;28;20216;-85
2021/03/18 03:13:48;;;;;;;16.07;8.33;;;1.90;89.30;;;;;;5063889;28;20281;-85
2021/03/18 03:16:19;;;;;;;12.77;8.13;;;1.90;87.10;;;;;;5070854;28;20635;-84
2021/03/18 03:18:47;;;;;;;12.20;7.90;;;1.90;87.00;;;;;;5068270;28;20342;-83
2021/03/18 03:21:16;;;;;;;15.43;8.50;;;1.90;87.60;;;;;;5066460;28;20196;-83
2021/03/18 03:23:44;;;;;;;14.13;8.00;;;1.80;87.00;;;;;;5074749;28;20228;-85
2021/03/18 03:26:13;;;;;;;17.93;9.43;;;1.80;87.80;;;;;;5064186;28;20235;-84
2021/03/18 03:28:40;;;;;;;12.53;8.20;;;1.70;87.10;;;;;;5069528;28;20228;-83
2021/03/18 03:31:07;;;;;;;13.27;8.43;;;1.80;88.70;;;;;;5075356;28;20880;-82
2021/03/18 03:33:34;;;;;;;15.10;9.40;;;1.90;88.80;;;;;;5067947;28;20229;-88
2021/03/18 03:36:01;;;;;;;13.60;8.70;;;2.00;87.10;;;;;;5076991;28;20204;-83
2021/03/18 03:38:28;;;;;;;14.97;9.30;;;2.00;87.10;;;;;;5087701;28;20694;-82
2021/03/18 03:40:55;;;;;;;15.03;9.20;;;1.80;86.90;;;;;;5071564;28;20283;-82
2021/03/18 03:43:22;;;;;;;14.10;8.97;;;1.90;87.30;;;;;;5076817;28;20238;-88
2021/03/18 03:45:52;;;;;;;14.83;8.53;;;1.80;87.00;;;;;;5075474;28;20264;-82
2021/03/18 03:48:19;;;;;;;14.73;8.97;;;1.80;87.50;;;;;;5076715;28;20223;-83
2021/03/18 03:50:45;;;;;;;13.37;9.07;;;1.70;87.80;;;;;;5079505;28;20660;-84
2021/03/18 03:53:18;;;;;;;14.77;8.83;;;1.70;88.20;;;;;;5081302;28;20302;-87
2021/03/18 03:55:55;;;;;;;16.97;10.27;;;1.70;88.70;;;;;;5074613;28;20205;-89
2021/03/18 03:58:35;;;;;;;15.00;9.63;;;1.80;89.80;;;;;;5080837;28;20226;-82
2021/03/18 04:01:04;;;;;;;14.57;9.63;;;1.80;88.70;;;;;;5073353;28;20197;-83
2021/03/18 04:03:34;;;;;;;15.23;9.33;;;1.90;89.20;;;;;;5072898;28;20261;-86
2021/03/18 04:06:01;;;;;;;17.53;9.90;;;1.90;88.90;;;;;;5068634;28;20209;-86
2021/03/18 04:08:29;;;;;;;13.80;9.63;;;1.90;88.30;;;;;;5072634;28;20223;-85
2021/03/18 04:10:57;;;;;;;13.70;9.73;;;1.80;87.00;;;;;;5067083;28;20204;-83
2021/03/18 04:13:26;;;;;;;17.17;10.40;;;1.70;88.70;;;;;;5071322;28;20576;-84
2021/03/18 04:15:57;;;;;;;18.07;10.37;;;1.70;89.40;;;;;;5075218;28;20288;-84
2021/03/18 04:18:28;;;;;;;18.13;9.90;;;1.70;90.00;;;;;;5073982;28;20218;-84
2021/03/18 04:20:57;;;;;;;15.60;9.83;;;1.80;89.50;;;;;;5076632;28;20386;-85
2021/03/18 04:23:26;;;;;;;16.93;10.60;;;1.70;89.70;;;;;;5076534;28;20227;-84
2021/03/18 04:25:52;;;;;;;15.80;9.73;;;1.50;89.50;;;;;;5074493;28;20413;-84
2021/03/18 04:28:20;;;;;;;17.63;10.37;;;1.40;90.00;;;;;;5072752;28;20556;-87
2021/03/18 04:30:47;;;;;;;15.40;9.77;;;1.60;90.20;;;;;;5083952;28;20732;-86
2021/03/18 04:33:15;;;;;;;17.50;10.63;;;1.60;90.00;;;;;;5079047;28;20221;-84
2021/03/18 04:35:42;;;;;;;15.67;10.07;;;1.60;88.90;;;;;;5074797;28;20212;-86
2021/03/18 04:38:09;;;;;;;20.77;10.37;;;1.70;89.70;;;;;;5071225;28;20228;-83
2021/03/18 04:40:36;;;;;;;15.80;9.83;;;1.70;89.30;;;;;;5077260;28;20536;-83
2021/03/18 04:43:03;;;;;;;15.70;10.17;;;1.70;90.00;;;;;;5073510;28;20682;-83
2021/03/18 04:45:31;;;;;;;17.13;10.67;;;1.60;90.00;;;;;;5072642;28;20212;-83
2021/03/18 04:48:00;;;;;;;16.73;10.20;;;1.60;90.00;;;;;;5082273;28;20233;-84
2021/03/18 04:50:29;;;;;;;15.80;10.37;;;1.80;90.10;;;;;;5070608;28;20711;-84
2021/03/18 04:52:56;;;;;;;16.43;10.57;;;1.80;89.10;;;;;;5072237;28;20560;-83
2021/03/18 04:55:22;;;;;;;17.60;10.90;;;1.50;90.00;;;;;;5074586;28;20212;-86
2021/03/18 04:57:54;;;;;;;17.70;9.87;;;1.50;90.40;;;;;;5071918;28;20238;-82
2021/03/18 05:00:22;;;;;;;17.80;10.73;;;1.50;90.40;;;;;;5070474;28;20201;-84
2021/03/18 05:02:49;;;;;;;18.30;10.50;;;1.60;90.40;;;;;;5072721;28;20319;-83
2021/03/18 05:05:18;;;;;;;16.70;10.53;;;1.70;90.10;;;;;;5070394;28;20204;-83
2021/03/18 05:07:47;;;;;;;17.70;10.70;;;1.80;90.30;;;;;;5067384;28;20297;-83
2021/03/18 05:10:17;;;;;;;17.60;10.70;;;1.60;90.20;;;;;;5076756;28;20272;-85
2021/03/18 05:12:44;;;;;;;17.47;11.13;;;1.70;90.70;;;;;;5073365;28;20233;-83
2021/03/18 05:15:13;;;;;;;17.97;11.37;;;1.50;90.80;;;;;;5063614;28;20301;-85
2021/03/18 05:17:40;;;;;;;18.57;11.03;;;1.50;90.60;;;;;;5079004;28;20242;-84
2021/03/18 05:20:09;;;;;;;17.83;11.03;;;1.60;91.00;;;;;;5067686;28;20616;-83
2021/03/18 05:22:35;;;;;;;19.53;11.47;;;1.80;90.80;;;;;;5072275;28;20235;-84
2021/03/18 05:25:05;;;;;;;16.13;11.00;;;1.70;90.30;;;;;;5069080;28;20225;-84
2021/03/18 05:27:32;;;;;;;16.53;11.03;;;1.70;90.40;;;;;;5080528;28;20202;-82
2021/03/18 05:29:58;;;;;;;19.07;11.00;;;1.70;90.60;;;;;;5079161;28;20209;-83
2021/03/18 05:32:26;;;;;;;16.43;11.23;;;1.80;90.50;;;;;;5071954;28;20199;-83
2021/03/18 05:34:52;;;;;;;15.37;11.00;;;1.80;90.40;;;;;;5071864;28;20587;-84
2021/03/18 05:37:19;;;;;;;17.27;11.30;;;1.80;90.60;;;;;;5080039;28;20279;-83
2021/03/18 05:39:45;;;;;;;20.23;11.57;;;1.80;90.80;;;;;;5078862;28;20201;-85
2021/03/18 05:42:13;;;;;;;20.33;11.83;;;1.70;90.60;;;;;;5071707;28;20204;-87
2021/03/18 05:44:39;;;;;;;17.80;11.10;;;1.60;90.80;;;;;;5077563;28;20702;-83
2021/03/18 05:47:06;;;;;;;16.57;10.90;;;1.60;90.80;;;;;;5070817;28;20631;-85
2021/03/18 05:49:33;;;;;;;19.00;11.30;;;1.70;91.10;;;;;;5071137;28;20235;-83
2021/03/18 05:52:02;;;;;;;16.17;11.13;;;1.70;90.90;;;;;;5072640;28;20258;-89
2021/03/18 05:54:30;;;;;;;19.63;12.73;;;1.70;91.10;;;;;;5079951;28;20695;-83
2021/03/18 05:56:56;;;;;;;19.03;12.23;;;1.80;91.40;;;;;;5070442;28;20253;-87
2021/03/18 05:59:25;;;;;;;17.27;11.73;;;1.80;91.00;;;;;;5072560;28;20802;-84
2021/03/18 06:01:51;;;;;;;17.00;11.37;;;1.70;90.90;;;;;;5074035;28;20323;-83
2021/03/18 06:04:18;;;;;;;19.17;12.87;;;1.50;91.60;;;;;;5079593;28;20248;-83
2021/03/18 06:06:45;;;;;;;17.33;11.50;;;1.70;91.70;;;;;;5069725;28;20205;-83
2021/03/18 06:09:12;;;;;;;16.60;11.70;;;1.70;91.70;;;;;;5070505;28;20235;-84
2021/03/18 06:11:40;;;;;;;18.37;12.30;;;1.80;91.70;;;;;;5080709;28;20205;-83
2021/03/18 06:14:07;;;;;;;19.00;12.10;;;1.70;91.40;;;;;;5076522;28;20629;-84
2021/03/18 06:16:35;;;;;;;18.43;12.33;;;1.70;92.00;;;;;;5076395;28;20215;-85
2021/03/18 06:19:06;;;;;;;16.47;11.70;;;1.80;91.70;;;;;;5066796;28;20311;-83
2021/03/18 06:21:45;;;;;;;18.23;12.37;;;1.80;91.60;;;;;;5079021;28;20207;-85
2021/03/18 06:24:12;;;;;;;19.23;12.57;;;1.70;91.60;;;;;;5071202;28;20876;-84
2021/03/18 06:26:43;;;;;;;20.83;13.33;;;1.70;91.70;;;;;;5062101;28;20209;-83
2021/03/18 06:29:31;;;;;;;19.43;12.70;;;1.80;91.90;;;;;;5062205;28;20228;-85
2021/03/18 06:32:14;;;;;;;19.70;12.67;;;1.90;91.70;;;;;;5066370;28;20208;-86
2021/03/18 06:34:44;;;;;;;20.47;13.93;;;1.90;91.70;;;;;;5071005;28;20215;-87
2021/03/18 06:37:43;;;;;;;19.03;12.13;;;1.80;92.00;;;;;;5071043;28;20205;-89
2021/03/18 06:40:13;;;;;;;20.43;13.37;;;1.80;92.10;;;;;;5065730;28;20672;-84
2021/03/18 06:42:51;;;;;;;19.50;13.13;;;1.80;91.70;;;;;;5077869;28;20240;-82
2021/03/18 06:45:18;;;;;;;19.53;13.07;;;1.80;91.70;;;;;;5103836;28;20202;-82
2021/03/18 06:47:49;;;;;;;20.77;13.57;;;1.80;91.70;;;;;;5115496;28;20282;-88
2021/03/18 06:50:19;;;;;;;23.87;15.07;;;2.00;91.40;;;;;;5112375;28;20247;-84
2021/03/18 06:52:45;;;;;;;22.57;14.70;;;2.00;91.50;;;;;;5100100;28;20222;-84
2021/03/18 06:55:23;;;;;;;21.80;14.53;;;2.00;91.40;;;;;;5107763;28;20192;-82
2021/03/18 06:57:49;;;;;;;21.97;13.97;;;2.00;90.80;;;;;;5109235;28;20234;-81
2021/03/18 07:00:35;;;;;;;21.40;14.03;;;1.90;90.70;;;;;;5109101;28;20213;-81
2021/03/18 07:03:02;;;;;;;20.07;14.33;;;2.20;90.90;;;;;;5103771;28;20247;-86
2021/03/18 07:05:37;;;;;;;22.07;14.13;;;2.40;90.30;;;;;;5102246;28;20207;-81
2021/03/18 07:08:05;;;;;;;21.23;13.93;;;2.50;89.80;;;;;;5108645;28;20223;-88
2021/03/18 07:10:36;;;;;;;21.03;13.60;;;2.50;90.20;;;;;;5104556;28;20524;-83
2021/03/18 07:13:19;;;;;;;21.47;14.47;;;2.30;90.00;;;;;;5104265;28;20255;-84
2021/03/18 07:15:46;;;;;;;22.17;14.73;;;2.40;90.40;;;;;;5100942;28;20192;-87
2021/03/18 07:21:38;;;;;;;21.43;14.50;;;2.40;90.00;;;;;;5097587;28;20239;-81
2021/03/18 07:24:25;;;;;;;18.73;13.37;;;2.40;89.20;;;;;;5098623;28;20231;-81
2021/03/18 07:26:54;;;;;;;20.33;13.73;;;2.40;88.90;;;;;;5078695;28;20196;-82
2021/03/18 07:29:24;;;;;;;20.37;13.90;;;2.40;89.50;;;;;;5111514;28;20212;-82
2021/03/18 07:32:14;;;;;;;25.80;14.43;;;2.50;87.40;;;;;;5118030;28;20599;-82
2021/03/18 07:34:53;;;;;;;21.30;14.73;;;2.50;87.80;;;;;;5115119;28;20647;-82
2021/03/18 07:37:21;;;;;;;22.73;14.83;;;2.50;88.30;;;;;;5114757;28;20200;-87
2021/03/18 07:39:48;;;;;;;22.57;14.73;;;2.40;88.50;;;;;;5109044;28;20225;-84
2021/03/18 07:42:17;;;;;;;20.60;15.07;;;2.30;87.30;;;;;;5099777;28;20203;-83
2021/03/18 07:44:45;;;;;;;22.67;15.13;;;2.30;88.40;;;;;;5104947;28;20599;-85
2021/03/18 07:47:14;;;;;;;22.13;14.73;;;2.50;88.00;;;;;;5105212;28;20204;-83
2021/03/18 07:49:43;;;;;;;21.33;14.80;;;2.80;87.60;;;;;;5102853;27;20558;-85
2021/03/18 07:52:15;;;;;;;21.80;14.70;;;2.80;86.30;;;;;;5106563;28;20249;-84
2021/03/18 07:54:45;;;;;;;19.63;14.37;;;2.90;86.50;;;;;;5105195;28;20727;-81
2021/03/18 07:57:15;;;;;;;21.90;14.63;;;3.10;85.50;;;;;;5106589;28;20211;-85
2021/03/18 07:59:41;;;;;;;19.73;14.30;;;3.10;85.50;;;;;;5109103;28;20220;-85
2021/03/18 08:02:12;;;;;;;19.90;13.67;;;3.20;84.50;;;;;;5098491;28;20215;-85
2021/03/18 08:04:43;;;;;;;20.07;14.10;;;3.00;83.80;;;;;;5103510;27;20241;-82
2021/03/18 08:07:10;;;;;;;22.00;15.37;;;3.00;84.80;;;;;;5102226;28;20656;-88
2021/03/18 08:09:52;;;;;;;20.03;14.53;;;2.90;86.30;;;;;;5099621;27;20709;-87
2021/03/18 08:12:42;;;;;;;20.83;14.33;;;3.00;87.30;;;;;;5107852;28;20192;-84
2021/03/18 08:15:27;;;;;;;21.63;14.20;;;3.10;85.40;;;;;;5109693;28;20204;-85
2021/03/18 08:17:56;;;;;;;19.67;13.47;;;3.00;85.60;;;;;;5107928;27;20350;-86
2021/03/18 08:21:01;;;;;;;20.77;14.33;;;3.00;85.60;;;;;;5113905;27;20202;-84
2021/03/18 08:23:39;;;;;;;21.87;14.03;;;2.90;86.00;;;;;;5112516;27;20231;-84
2021/03/18 08:26:08;;;;;;;21.83;14.23;;;3.00;86.50;;;;;;5116571;27;20191;-82
2021/03/18 08:28:36;;;;;;;20.23;13.93;;;3.10;86.80;;;;;;5111280;27;20280;-85
2021/03/18 08:31:08;;;;;;;19.63;14.07;;;3.40;87.20;;;;;;5110420;27;20324;-84
2021/03/18 08:33:37;;;;;;;19.23;13.00;;;3.80;83.80;;;;;;5115713;27;20249;-86
2021/03/18 08:36:25;;;;;;;17.63;13.17;;;4.10;81.20;;;;;;5113708;27;20264;-84
2021/03/18 08:38:53;;;;;;;18.03;13.07;;;4.10;80.50;;;;;;5111227;28;20697;-84
2021/03/18 08:41:31;;;;;;;17.77;13.20;;;4.20;79.30;;;;;;5103037;27;20199;-89
2021/03/18 08:44:15;;;;;;;18.60;12.73;;;4.80;79.40;;;;;;5107313;27;20259;-85
2021/03/18 08:46:43;;;;;;;17.27;12.83;;;4.60;76.10;;;;;;5109508;27;20200;-86
2021/03/18 08:49:29;;;;;;;18.43;12.90;;;4.90;76.80;;;;;;5114213;27;20223;-89
2021/03/18 08:51:58;;;;;;;18.67;12.00;;;5.50;74.20;;;;;;5107186;28;20192;-86
2021/03/18 08:54:53;;;;;;;15.57;11.53;;;5.80;70.60;;;;;;5102825;27;20217;-86
2021/03/18 08:57:29;;;;;;;15.53;11.80;;;5.50;68.50;;;;;;5101161;28;20207;-87
2021/03/18 08:59:58;;;;;;;17.90;11.57;;;5.30;70.00;;;;;;5104323;27;20592;-86
2021/03/18 09:02:30;;;;;;;16.07;11.63;;;5.20;70.00;;;;;;5103380;28;20230;-87
2021/03/18 09:04:58;;;;;;;16.13;11.87;;;5.20;70.90;;;;;;5098660;28;20196;-87
2021/03/18 09:07:26;;;;;;;15.90;12.10;;;5.10;69.80;;;;;;5095409;28;20580;-88
2021/03/18 09:10:00;;;;;;;18.03;11.97;;;5.00;71.80;;;;;;5101064;28;20222;-87
2021/03/18 09:12:42;;;;;;;15.83;10.73;;;5.20;70.00;;;;;;5099968;27;20199;-88
2021/03/18 09:15:11;;;;;;;16.03;11.33;;;5.30;70.00;;;;;;5104032;27;20196;-91
2021/03/18 09:17:38;;;;;;;16.10;11.37;;;5.40;68.10;;;;;;5108882;27;20226;-86
2021/03/18 09:20:06;;;;;;;14.27;11.33;;;5.80;64.60;;;;;;5100059;28;20192;-86
2021/03/18 09:22:35;;;;;;;17.13;12.07;;;5.90;62.30;;;;;;5099425;27;20203;-89
2021/03/18 09:25:02;;;;;;;19.00;13.83;;;6.30;63.70;;;;;;5108597;27;20272;-89
2021/03/18 09:27:40;;;;;;;16.80;10.50;;;6.40;62.30;;;;;;5102980;28;20200;-87
2021/03/18 09:30:23;;;;;;;11.83;9.23;;;6.00;63.10;;;;;;5116794;28;20188;-87
2021/03/18 09:32:51;;;;;;;14.10;9.80;;;5.70;60.10;;;;;;5100887;28;20318;-87
2021/03/18 09:35:19;;;;;;;13.60;9.50;;;5.50;63.90;;;;;;5104950;27;20230;-84
2021/03/18 09:37:46;;;;;;;16.63;11.23;;;5.30;64.40;;;;;;5102624;27;20269;-86
2021/03/18 09:40:18;;;;;;;14.23;10.53;;;5.30;70.00;;;;;;5102337;28;20606;-83
2021/03/18 09:42:45;;;;;;;16.60;10.23;;;5.40;70.10;;;;;;5103114;28;20281;-84
2021/03/18 09:45:19;;;;;;;16.00;11.13;;;5.60;64.90;;;;;;5100743;28;20200;-86
2021/03/18 09:47:50;;;;;;;12.07;9.10;;;5.40;65.30;;;;;;5107034;28;20681;-84
2021/03/18 09:53:50;;;;;;;;;;;;;;;;;;;;;
2021/03/18 09:56:42;;;;;;;12.67;9.87;;;5.80;64.80;;;;;;5062703;28;20200;-87
2021/03/18 10:02:32;;;;;;;12.93;9.10;;;5.90;59.50;;;;;;5413146;22;20310;-89
2021/03/18 10:09:04;;;;;;;17.17;9.33;;;6.70;57.80;;;;;;5110955;28;20223;-89
2021/03/18 10:12:14;;;;;;;16.43;11.23;;;6.70;57.50;;;;;;5077680;28;20193;-88
2021/03/18 10:14:43;;;;;;;15.13;10.47;;;6.40;59.60;;;;;;5078396;28;20208;-86
2021/03/18 10:17:12;;;;;;;19.93;10.83;;;6.10;60.00;;;;;;5082035;28;20261;-87
2021/03/18 10:19:43;;;;;;;17.83;10.33;;;6.00;59.50;;;;;;5089029;28;20224;-86
2021/03/18 10:22:10;;;;;;;13.80;9.90;;;5.80;60.30;;;;;;5083497;28;20208;-88
2021/03/18 10:24:37;;;;;;;14.07;10.00;;;5.90;59.40;;;;;;5086599;28;20659;-88
2021/03/18 10:27:08;;;;;;;17.43;11.80;;;6.00;59.50;;;;;;5085817;28;20607;-89
2021/03/18 10:29:36;;;;;;;23.27;15.17;;;6.00;60.50;;;;;;5084528;28;20239;-86
2021/03/18 10:32:10;;;;;;;19.60;12.10;;;6.10;61.50;;;;;;5093995;28;20211;-89
2021/03/18 10:34:36;;;;;;;13.73;10.70;;;5.70;59.40;;;;;;5083827;28;20247;-88
2021/03/18 10:37:31;;;;;;;14.20;10.57;;;5.80;58.30;;;;;;5093426;28;20212;-88
2021/03/18 10:40:08;;;;;;;15.70;10.23;;;6.10;59.40;;;;;;5090511;28;20224;-92
2021/03/18 10:42:35;;;;;;;11.10;8.50;;;6.30;58.40;;;;;;5102710;28;20200;-89
2021/03/18 10:55:38;;;;;;;11.90;8.40;;;9.10;46.50;;;;;;5109444;28;20263;-90
2021/03/18 10:58:09;;;;;;;17.42;12.35;;;11.00;38.60;;;;;;5092306;28;20761;-92
2021/03/18 11:00:37;;;;;;;10.98;7.90;;;11.90;34.40;;;;;;5076972;28;20193;-90
2021/03/18 11:10:51;;;;;;;11.98;9.60;;;12.70;31.20;;;;;;5723037;22;20229;-90
2021/03/18 11:13:22;;;;;;;9.70;6.80;;;12.10;30.10;;;;;;5072488;28;20311;-92
2021/03/18 11:19:13;;;;;;;10.07;7.28;;;10.70;35.20;;;;;;5072406;28;20220;-91
2021/03/18 11:22:15;;;;;;;9.00;7.00;;;9.40;38.00;;;;;;5080514;28;20269;-90
2021/03/18 11:24:43;;;;;;;8.38;7.28;;;8.40;40.60;;;;;;5072560;28;20209;-86
2021/03/18 11:27:13;;;;;;;10.73;6.65;;;7.70;44.80;;;;;;5079837;28;20182;-92
2021/03/18 11:30:35;;;;;;;6.10;5.28;;;6.90;45.80;;;;;;5075772;28;20235;-88
2021/03/18 11:33:33;;;;;;;10.45;6.78;;;6.20;44.00;;;;;;5077249;28;20255;-86
2021/03/18 11:36:02;;;;;;;7.67;6.33;;;5.80;51.10;;;;;;5070627;28;20271;-86
2021/03/18 11:38:31;;;;;;;7.53;5.80;;;5.50;51.80;;;;;;5073191;28;20232;-85
2021/03/18 11:40:58;;;;;;;8.40;6.33;;;5.40;49.90;;;;;;5072594;28;20200;-91
2021/03/18 11:43:28;;;;;;;9.07;7.00;;;5.30;52.30;;;;;;5060772;28;20316;-88
2021/03/18 11:45:55;;;;;;;10.97;7.77;;;5.30;56.40;;;;;;5076962;28;20577;-84
2021/03/18 11:48:33;;;;;;;9.90;7.60;;;5.10;58.20;;;;;;5074581;28;20229;-84
2021/03/18 11:51:01;;;;;;;10.23;7.37;;;5.30;58.00;;;;;;5069607;28;20197;-84
2021/03/18 11:53:27;;;;;;;10.03;8.10;;;5.70;58.20;;;;;;5075350;28;20300;-86
2021/03/18 11:55:54;;;;;;;9.77;7.47;;;6.00;60.00;;;;;;5071712;28;20195;-84
2021/03/18 11:58:46;;;;;;;8.70;6.97;;;6.00;56.90;;;;;;5071869;28;20675;-87
2021/03/18 12:03:50;;;;;;;8.83;6.87;;;6.70;56.00;;;;;;5357826;23;20702;-84
2021/03/18 12:06:17;;;;;;;10.13;6.57;;;7.00;50.70;;;;;;5068538;28;20194;-83
2021/03/18 12:08:43;;;;;;;8.77;6.47;;;7.00;51.50;;;;;;5053335;28;20405;-90
2021/03/18 12:11:24;;;;;;;7.77;5.77;;;7.50;48.40;;;;;;5054496;28;20193;-84
2021/03/18 12:13:51;;;;;;;7.50;6.47;;;7.50;44.40;;;;;;5066830;28;20668;-85
2021/03/18 12:16:17;;;;;;;11.13;6.63;;;7.50;46.30;;;;;;5060058;28;20258;-85
2021/03/18 12:18:46;;;;;;;11.17;6.10;;;7.60;47.60;;;;;;5060167;28;20321;-92
2021/03/18 12:21:12;;;;;;;11.47;7.30;;;7.40;46.20;;;;;;5060406;28;20367;-86
2021/03/18 12:23:39;;;;;;;8.47;5.83;;;7.30;49.80;;;;;;5065758;28;20225;-84
2021/03/18 12:26:05;;;;;;;9.27;6.70;;;7.30;46.10;;;;;;5064727;28;20228;-85
2021/03/18 12:28:31;;;;;;;9.90;7.30;;;7.20;46.10;;;;;;5060944;28;20362;-90
2021/03/18 12:30:59;;;;;;;12.63;6.90;;;7.00;48.80;;;;;;5068066;28;20219;-84
2021/03/18 12:33:25;;;;;;;12.50;7.67;;;6.90;50.80;;;;;;5063786;28;20640;-85
2021/03/18 12:35:53;;;;;;;12.37;7.27;;;6.60;52.10;;;;;;5062129;28;20240;-85
2021/03/18 12:38:22;;;;;;;17.53;7.23;;;6.40;52.60;;;;;;5060172;28;20941;-84
2021/03/18 12:40:49;;;;;;;12.07;6.23;;;6.40;51.20;;;;;;5062750;28;20284;-87
2021/03/18 12:43:15;;;;;;;13.70;6.03;;;6.40;48.50;;;;;;5063966;28;20217;-88
2021/03/18 12:45:42;;;;;;;12.23;6.47;;;6.70;50.20;;;;;;5065473;28;20213;-83
2021/03/18 12:48:10;;;;;;;9.50;6.07;;;6.70;48.60;;;;;;5068716;28;20850;-83
2021/03/18 12:50:37;;;;;;;9.37;5.87;;;6.70;47.80;;;;;;5063515;28;20674;-84
2021/03/18 12:53:03;;;;;;;7.27;5.60;;;6.70;48.40;;;;;;5062102;28;20214;-87
2021/03/18 12:55:30;;;;;;;9.23;5.80;;;6.70;46.80;;;;;;5072243;28;20697;-83
2021/03/18 12:57:57;;;;;;;7.43;5.27;;;6.60;47.50;;;;;;5054887;28;20842;-87
2021/03/18 13:00:27;;;;;;;10.47;5.50;;;6.50;45.50;;;;;;5054363;28;20310;-84
2021/03/18 13:02:53;;;;;;;14.33;5.13;;;6.30;45.30;;;;;;5043652;28;20229;-84
2021/03/18 13:05:21;;;;;;;6.70;4.83;;;6.40;45.40;;;;;;5043308;28;20198;-83
2021/03/18 13:07:48;;;;;;;4.77;4.07;;;6.40;45.40;;;;;;5045788;28;20226;-82
2021/03/18 13:10:15;;;;;;;7.83;4.43;;;6.30;43.90;;;;;;5044207;28;20210;-84
2021/03/18 13:12:42;;;;;;;6.53;4.80;;;6.40;45.40;;;;;;5041023;28;20237;-84
2021/03/18 13:15:11;;;;;;;7.33;5.00;;;6.30;45.30;;;;;;5039362;28;20194;-83
2021/03/18 13:17:38;;;;;;;6.20;4.87;;;6.00;47.10;;;;;;5040999;28;20279;-84
2021/03/18 13:20:06;;;;;;;6.80;4.43;;;5.80;47.70;;;;;;5043307;28;20218;-82
2021/03/18 13:22:33;;;;;;;5.83;4.70;;;5.80;48.10;;;;;;5027131;28;20222;-89
2021/03/18 13:24:59;;;;;;;5.97;4.20;;;5.80;48.20;;;;;;5048484;28;20882;-82
2021/03/18 13:27:26;;;;;;;5.97;4.30;;;5.70;44.80;;;;;;5043545;28;20205;-82
2021/03/18 13:29:52;;;;;;;9.20;3.83;;;5.70;44.80;;;;;;5047095;28;20205;-89
2021/03/18 13:32:18;;;;;;;6.03;4.73;;;5.80;45.00;;;;;;5042990;28;20222;-87
2021/03/18 13:34:45;;;;;;;5.63;4.50;;;5.90;45.00;;;;;;5047663;28;20194;-85
2021/03/18 13:37:11;;;;;;;6.57;5.03;;;5.80;47.30;;;;;;5048179;28;20689;-82
2021/03/18 13:39:38;;;;;;;10.87;5.23;;;6.10;46.60;;;;;;5040425;28;20585;-84
2021/03/18 13:42:05;;;;;;;5.70;4.47;;;6.20;45.30;;;;;;5050412;28;20193;-82